Time;durP1;ratioP1;P1;durP2;ratioP2;P2;SDS_P1;SDS_P2;PMS_P1;PMS_P2;Temp;Humidity;BMP_temperature;BMP_pressure;BME280_temperature;BME280_humidity;BME280_pressure;Samples;Min_cycle;Max_cycle;Signal;HPM_P1;HPM_P2
2023/05/03 00:01:48;;;;;;;37.23;23.70;;;;;;;;;;6298986;28;20072;-80
2023/05/03 00:04:52;;;;;;;33.57;24.23;;;;;;;;;;6297849;28;20056;-81
2023/05/03 00:07:52;;;;;;;57.63;35.72;;;;;;;;;;6294343;28;20430;-81
2023/05/03 00:10:58;;;;;;;59.23;32.60;;;;;;;;;;6295569;28;20024;-81
2023/05/03 00:13:58;;;;;;;52.35;30.85;;;;;;;;;;6296732;28;20046;-81
2023/05/03 00:16:58;;;;;;;48.07;30.23;;;;;;;;;;6288819;28;20056;-81
2023/05/03 00:19:59;;;;;;;40.00;26.17;;;;;;;;;;6303576;28;20040;-82
2023/05/03 00:23:00;;;;;;;38.63;24.80;;;;;;;;;;6299825;28;20413;-82
2023/05/03 00:26:01;;;;;;;;;;;;;;;;;;6278631;28;20107;-83
2023/05/03 00:29:01;;;;;;;30.67;20.85;;;;;;;;;;6303080;28;20426;-81
2023/05/03 00:32:01;;;;;;;34.67;21.73;;;;;;;;;;6271914;28;20021;-79
2023/05/03 00:35:01;;;;;;;40.67;25.23;;;;;;;;;;6289099;28;20070;-83
2023/05/03 00:38:01;;;;;;;33.78;21.08;;;;;;;;;;6294242;28;20028;-81
2023/05/03 00:41:02;;;;;;;37.43;23.47;;;;;;;;;;6289866;28;20024;-81
2023/05/03 00:44:03;;;;;;;38.20;23.07;;;;;;;;;;6296223;28;20020;-80
2023/05/03 00:47:04;;;;;;;37.78;23.08;;;;;;;;;;6302924;28;20074;-81
2023/05/03 00:50:05;;;;;;;41.10;20.57;;;;;;;;;;6296774;28;20012;-81
2023/05/03 00:53:05;;;;;;;29.57;20.63;;;;;;;;;;6300150;28;20387;-80
2023/05/03 00:56:07;;;;;;;33.23;21.87;;;;;;;;;;6303219;28;20053;-81
2023/05/03 00:59:08;;;;;;;34.85;22.48;;;;;;;;;;6295616;28;20028;-81
2023/05/03 01:02:08;;;;;;;37.00;22.73;;;;;;;;;;6327483;28;20398;-80
2023/05/03 01:05:09;;;;;;;33.27;20.00;;;;;;;;;;6322301;28;20024;-81
2023/05/03 01:08:18;;;;;;;35.20;23.23;;;;;;;;;;6291943;28;20016;-80
2023/05/03 01:11:24;;;;;;;36.75;22.45;;;;;;;;;;6324971;28;20035;-80
2023/05/03 01:14:32;;;;;;;35.42;22.88;;;;;;;;;;6316167;28;20388;-80
2023/05/03 01:17:41;;;;;;;38.70;24.75;;;;;;;;;;6324937;28;20489;-80
2023/05/03 01:20:45;;;;;;;39.60;24.98;;;;;;;;;;6326095;28;20507;-81
2023/05/03 01:23:49;;;;;;;35.42;25.80;;;;;;;;;;6305994;28;20034;-80
2023/05/03 01:26:50;;;;;;;36.45;22.52;;;;;;;;;;6303775;28;20406;-81
2023/05/03 01:29:50;;;;;;;44.30;27.77;;;;;;;;;;6327572;28;20024;-80
2023/05/03 01:32:56;;;;;;;37.07;24.50;;;;;;;;;;6319369;28;20171;-80
2023/05/03 01:36:03;;;;;;;42.85;26.40;;;;;;;;;;6328280;28;20032;-81
2023/05/03 01:39:06;;;;;;;43.55;28.42;;;;;;;;;;6315371;28;20098;-80
2023/05/03 01:42:07;;;;;;;45.90;28.60;;;;;;;;;;6301949;28;20378;-80
2023/05/03 01:45:08;;;;;;;42.23;25.90;;;;;;;;;;6321094;28;20020;-80
2023/05/03 01:48:18;;;;;;;42.38;25.88;;;;;;;;;;6323558;28;20539;-80
2023/05/03 01:51:18;;;;;;;44.30;27.52;;;;;;;;;;6324327;28;20020;-81
2023/05/03 01:54:18;;;;;;;42.50;25.23;;;;;;;;;;6314479;28;20034;-80
2023/05/03 01:57:18;;;;;;;44.27;26.60;;;;;;;;;;6319857;28;20377;-81
2023/05/03 02:00:19;;;;;;;44.90;27.77;;;;;;;;;;6318973;28;20450;-80
2023/05/03 02:03:21;;;;;;;34.40;24.37;;;;;;;;;;6318044;28;20525;-81
2023/05/03 02:06:23;;;;;;;42.50;25.67;;;;;;;;;;6312428;28;20390;-81
2023/05/03 02:09:24;;;;;;;36.42;23.75;;;;;;;;;;6323023;28;20034;-81
2023/05/03 02:12:24;;;;;;;37.43;23.93;;;;;;;;;;6321339;28;20028;-82
2023/05/03 02:15:24;;;;;;;41.05;24.83;;;;;;;;;;6316937;28;20020;-83
2023/05/03 02:18:26;;;;;;;42.10;26.97;;;;;;;;;;6326941;28;20435;-82
2023/05/03 02:21:26;;;;;;;35.97;24.80;;;;;;;;;;6323062;28;20048;-83
2023/05/03 02:24:26;;;;;;;36.37;24.33;;;;;;;;;;6319224;28;20073;-82
2023/05/03 02:27:26;;;;;;;39.80;24.45;;;;;;;;;;6327468;28;20024;-82
2023/05/03 02:30:27;;;;;;;39.30;24.87;;;;;;;;;;6321131;28;20388;-81
2023/05/03 02:33:27;;;;;;;38.63;24.30;;;;;;;;;;6319670;28;20028;-80
2023/05/03 02:36:27;;;;;;;43.40;25.70;;;;;;;;;;6326479;28;20032;-81
2023/05/03 02:39:28;;;;;;;43.30;26.50;;;;;;;;;;6321042;28;20553;-76
2023/05/03 02:42:30;;;;;;;41.93;26.23;;;;;;;;;;6314905;28;20024;-76
2023/05/03 02:45:30;;;;;;;;;;;;;;;;;;6316637;28;20115;-76
2023/05/03 02:48:30;;;;;;;44.03;24.20;;;;;;;;;;6319583;28;19912;-76
2023/05/03 02:51:31;;;;;;;37.20;24.33;;;;;;;;;;6325855;28;20081;-77
2023/05/03 02:54:31;;;;;;;41.10;24.10;;;;;;;;;;6301284;28;20032;-77
2023/05/03 02:57:31;;;;;;;39.53;24.47;;;;;;;;;;6321726;28;20039;-77
2023/05/03 03:00:31;;;;;;;39.23;23.40;;;;;;;;;;6308354;28;20133;-77
2023/05/03 03:03:32;;;;;;;39.85;23.20;;;;;;;;;;6324118;28;20017;-77
2023/05/03 03:06:32;;;;;;;41.33;24.77;;;;;;;;;;6328975;28;20047;-77
2023/05/03 03:09:33;;;;;;;42.77;25.77;;;;;;;;;;6331102;28;20093;-76
2023/05/03 03:12:36;;;;;;;40.17;26.60;;;;;;;;;;6323167;28;20587;-77
2023/05/03 03:15:37;;;;;;;34.45;25.23;;;;;;;;;;6326685;28;20045;-77
2023/05/03 03:18:37;;;;;;;47.63;28.60;;;;;;;;;;6317134;28;20024;-76
2023/05/03 03:21:37;;;;;;;50.13;29.97;;;;;;;;;;6324089;28;20060;-77
2023/05/03 03:24:39;;;;;;;49.90;31.20;;;;;;;;;;6316195;28;20016;-77
2023/05/03 03:27:39;;;;;;;49.55;31.17;;;;;;;;;;6304008;28;20023;-77
2023/05/03 03:30:39;;;;;;;49.53;30.45;;;;;;;;;;6306216;28;20032;-77
2023/05/03 03:33:39;;;;;;;52.07;30.33;;;;;;;;;;6333637;28;20035;-77
2023/05/03 03:36:39;;;;;;;48.53;29.75;;;;;;;;;;6328418;28;20034;-76
2023/05/03 03:39:40;;;;;;;52.03;30.30;;;;;;;;;;6323847;28;20097;-76
2023/05/03 03:42:40;;;;;;;53.38;30.05;;;;;;;;;;6319365;28;20814;-76
2023/05/03 03:45:40;;;;;;;50.67;30.83;;;;;;;;;;6322428;28;20084;-76
2023/05/03 03:48:40;;;;;;;48.43;28.70;;;;;;;;;;6303533;28;20107;-76
2023/05/03 03:51:41;;;;;;;44.60;26.90;;;;;;;;;;6304220;28;20035;-76
2023/05/03 03:54:41;;;;;;;45.37;25.23;;;;;;;;;;6329035;28;20109;-76
2023/05/03 03:57:41;;;;;;;40.77;27.40;;;;;;;;;;6322393;28;20162;-75
2023/05/03 04:00:42;;;;;;;41.47;24.43;;;;;;;;;;6329356;28;20097;-75
2023/05/03 04:03:46;;;;;;;47.97;28.63;;;;;;;;;;6318647;28;20364;-75
2023/05/03 04:06:47;;;;;;;44.58;27.33;;;;;;;;;;6308402;28;20031;-75
2023/05/03 04:09:47;;;;;;;42.90;26.52;;;;;;;;;;6320835;28;20017;-76
2023/05/03 04:12:48;;;;;;;53.95;28.42;;;;;;;;;;6318974;28;20042;-76
2023/05/03 04:15:48;;;;;;;45.53;27.80;;;;;;;;;;6332239;28;20051;-75
2023/05/03 04:18:48;;;;;;;52.00;29.83;;;;;;;;;;6324498;28;20023;-76
2023/05/03 04:21:48;;;;;;;44.63;28.20;;;;;;;;;;6320217;28;20020;-76
2023/05/03 04:24:49;;;;;;;56.07;29.30;;;;;;;;;;6337433;28;20023;-76
2023/05/03 04:27:50;;;;;;;49.87;26.97;;;;;;;;;;6321819;28;20381;-76
2023/05/03 04:30:50;;;;;;;51.27;28.37;;;;;;;;;;6302176;28;20747;-76
2023/05/03 04:33:50;;;;;;;45.80;26.10;;;;;;;;;;6326398;28;20028;-76
2023/05/03 04:36:51;;;;;;;34.37;19.33;;;;;;;;;;6324199;28;20462;-76
2023/05/03 04:39:51;;;;;;;41.43;24.57;;;;;;;;;;6318835;28;20492;-76
2023/05/03 04:42:51;;;;;;;37.93;23.70;;;;;;;;;;6321349;28;20154;-75
2023/05/03 04:45:52;;;;;;;36.53;22.87;;;;;;;;;;6317860;28;20020;-76
2023/05/03 04:48:52;;;;;;;49.67;23.67;;;;;;;;;;6319688;28;20048;-76
2023/05/03 04:51:52;;;;;;;47.23;22.53;;;;;;;;;;6323211;28;20111;-75
2023/05/03 04:54:53;;;;;;;39.37;21.20;;;;;;;;;;6315929;28;20023;-76
2023/05/03 04:57:54;;;;;;;42.43;22.50;;;;;;;;;;6313462;28;20111;-75
2023/05/03 05:00:54;;;;;;;34.67;20.50;;;;;;;;;;6317324;28;20493;-79
2023/05/03 05:03:54;;;;;;;35.77;21.50;;;;;;;;;;6319474;28;20469;-79
2023/05/03 05:06:54;;;;;;;36.00;21.10;;;;;;;;;;6322389;28;20016;-78
2023/05/03 05:09:55;;;;;;;38.20;20.53;;;;;;;;;;6320747;28;20027;-80
2023/05/03 05:12:55;;;;;;;38.10;20.33;;;;;;;;;;6313780;28;20487;-79
2023/05/03 05:15:56;;;;;;;36.40;22.37;;;;;;;;;;6327908;28;20065;-79
2023/05/03 05:18:56;;;;;;;37.23;21.77;;;;;;;;;;6306864;28;20073;-79
2023/05/03 05:21:56;;;;;;;40.10;21.10;;;;;;;;;;6321487;28;20019;-79
2023/05/03 05:24:57;;;;;;;34.70;21.33;;;;;;;;;;6321435;28;20485;-79
2023/05/03 05:27:57;;;;;;;35.05;21.45;;;;;;;;;;6319070;28;20016;-79
2023/05/03 05:30:57;;;;;;;34.33;20.90;;;;;;;;;;6322226;28;20082;-79
2023/05/03 05:33:57;;;;;;;31.35;21.63;;;;;;;;;;6323209;28;20012;-79
2023/05/03 05:36:58;;;;;;;34.87;20.87;;;;;;;;;;6318985;28;20016;-80
2023/05/03 05:39:58;;;;;;;29.53;20.33;;;;;;;;;;6314531;28;20031;-80
2023/05/03 05:42:59;;;;;;;30.30;18.10;;;;;;;;;;6318331;28;20381;-79
2023/05/03 05:45:59;;;;;;;32.33;19.67;;;;;;;;;;6317147;28;20024;-80
2023/05/03 05:48:59;;;;;;;24.80;15.80;;;;;;;;;;6322654;28;20070;-80
2023/05/03 05:52:00;;;;;;;26.63;16.37;;;;;;;;;;6299978;28;20077;-81
2023/05/03 05:55:00;;;;;;;25.63;16.10;;;;;;;;;;6323042;28;20042;-80
2023/05/03 05:58:00;;;;;;;29.43;16.73;;;;;;;;;;6318616;28;20016;-81
2023/05/03 06:01:00;;;;;;;24.27;15.03;;;;;;;;;;6319137;28;20063;-81
2023/05/03 06:04:01;;;;;;;20.85;14.15;;;;;;;;;;6307259;28;20055;-80
2023/05/03 06:07:01;;;;;;;19.27;12.27;;;;;;;;;;6312200;28;20489;-82
2023/05/03 06:10:01;;;;;;;17.63;10.75;;;;;;;;;;6318988;28;20054;-75
2023/05/03 06:13:03;;;;;;;20.03;10.93;;;;;;;;;;6318152;28;20420;-75
2023/05/03 06:16:04;;;;;;;20.95;12.02;;;;;;;;;;6306910;28;20021;-75
2023/05/03 06:19:04;;;;;;;22.80;13.40;;;;;;;;;;6308397;28;20472;-75
2023/05/03 06:22:04;;;;;;;21.63;13.33;;;;;;;;;;6315761;28;20024;-75
2023/05/03 06:25:06;;;;;;;18.30;11.97;;;;;;;;;;6321194;28;20319;-75
2023/05/03 06:28:07;;;;;;;19.92;11.30;;;;;;;;;;6296853;28;20043;-74
2023/05/03 06:31:07;;;;;;;15.87;11.17;;;;;;;;;;6329806;28;20034;-74
2023/05/03 06:34:08;;;;;;;17.93;11.97;;;;;;;;;;6316317;28;20038;-73
2023/05/03 06:37:08;;;;;;;18.33;11.13;;;;;;;;;;6327186;28;20026;-74
2023/05/03 06:40:08;;;;;;;18.30;11.07;;;;;;;;;;6328045;28;20031;-74
2023/05/03 06:43:10;;;;;;;16.83;11.53;;;;;;;;;;6317779;28;20039;-73
2023/05/03 06:46:11;;;;;;;20.27;12.20;;;;;;;;;;6311462;28;20015;-73
2023/05/03 06:49:11;;;;;;;16.67;12.23;;;;;;;;;;6326987;28;20649;-74
2023/05/03 06:52:12;;;;;;;18.33;10.30;;;;;;;;;;6293869;28;20020;-73
2023/05/03 06:55:12;;;;;;;15.13;9.90;;;;;;;;;;6317735;28;20032;-74
2023/05/03 06:58:12;;;;;;;15.70;9.83;;;;;;;;;;6331522;28;20078;-73
2023/05/03 07:01:12;;;;;;;17.05;9.80;;;;;;;;;;6320848;28;20493;-74
2023/05/03 07:04:13;;;;;;;15.20;8.93;;;;;;;;;;6316882;28;20099;-74
2023/05/03 07:07:14;;;;;;;14.00;9.53;;;;;;;;;;6324129;28;20016;-74
2023/05/03 07:10:14;;;;;;;15.80;8.02;;;;;;;;;;6310884;28;20028;-74
2023/05/03 07:13:14;;;;;;;17.40;10.55;;;;;;;;;;6322884;28;20120;-74
2023/05/03 07:16:15;;;;;;;16.47;9.03;;;;;;;;;;6318553;28;20032;-74
2023/05/03 07:19:16;;;;;;;14.27;8.60;;;;;;;;;;6314963;28;20024;-75
2023/05/03 07:22:17;;;;;;;17.15;8.40;;;;;;;;;;6322611;28;20077;-79
2023/05/03 07:25:17;;;;;;;9.95;6.03;;;;;;;;;;6320884;28;20028;-78
2023/05/03 07:28:18;;;;;;;12.77;5.70;;;;;;;;;;6319897;28;20020;-77
2023/05/03 07:31:19;;;;;;;14.13;7.03;;;;;;;;;;6328283;28;20020;-78
2023/05/03 07:34:20;;;;;;;13.48;6.30;;;;;;;;;;6326259;28;20110;-77
2023/05/03 07:37:20;;;;;;;11.67;5.73;;;;;;;;;;6323022;28;20028;-78
2023/05/03 07:40:20;;;;;;;11.53;5.83;;;;;;;;;;6319552;28;20028;-78
2023/05/03 07:43:22;;;;;;;12.93;6.80;;;;;;;;;;6300315;28;20067;-78
2023/05/03 07:46:22;;;;;;;;;;;;;;;;;;6322013;28;20058;-77
2023/05/03 07:49:22;;;;;;;8.52;4.60;;;;;;;;;;6303565;28;20308;-78
2023/05/03 07:52:23;;;;;;;10.50;4.27;;;;;;;;;;6321667;28;20027;-77
2023/05/03 07:55:24;;;;;;;6.47;3.83;;;;;;;;;;6320242;28;20036;-78
2023/05/03 07:58:24;;;;;;;9.13;4.40;;;;;;;;;;6325513;28;20028;-78
2023/05/03 08:01:25;;;;;;;9.47;4.40;;;;;;;;;;6318388;28;20418;-78
2023/05/03 08:04:25;;;;;;;11.00;4.73;;;;;;;;;;6320949;28;20056;-78
2023/05/03 08:07:26;;;;;;;9.37;4.43;;;;;;;;;;6313988;28;20020;-78
2023/05/03 08:10:26;;;;;;;8.70;4.10;;;;;;;;;;6313440;28;20485;-78
2023/05/03 08:13:27;;;;;;;11.35;4.60;;;;;;;;;;6319882;28;20044;-78
2023/05/03 08:16:27;;;;;;;10.23;4.17;;;;;;;;;;6316451;28;20470;-79
2023/05/03 08:19:27;;;;;;;14.67;5.40;;;;;;;;;;6303204;28;20460;-78
2023/05/03 08:22:27;;;;;;;7.87;3.83;;;;;;;;;;6315309;28;20028;-79
2023/05/03 08:25:28;;;;;;;10.70;4.97;;;;;;;;;;6315060;28;20028;-78
2023/05/03 08:28:29;;;;;;;16.20;6.43;;;;;;;;;;6303259;28;20020;-78
2023/05/03 08:31:30;;;;;;;7.20;4.47;;;;;;;;;;6317459;28;20028;-79
2023/05/03 08:34:30;;;;;;;8.73;4.93;;;;;;;;;;6317944;28;20137;-78
2023/05/03 08:37:36;;;;;;;11.83;5.47;;;;;;;;;;6319193;28;20111;-79
2023/05/03 08:40:38;;;;;;;11.10;4.30;;;;;;;;;;6311206;28;20036;-79
2023/05/03 08:43:42;;;;;;;11.18;4.88;;;;;;;;;;6314375;28;20027;-78
2023/05/03 08:46:43;;;;;;;12.95;5.05;;;;;;;;;;6311050;28;20027;-79
2023/05/03 08:49:43;;;;;;;7.68;4.75;;;;;;;;;;6316165;28;20402;-79
2023/05/03 08:52:45;;;;;;;15.53;5.23;;;;;;;;;;6307667;28;20024;-79
2023/05/03 08:55:45;;;;;;;15.23;6.55;;;;;;;;;;6319202;28;20109;-79
2023/05/03 08:58:45;;;;;;;10.63;5.40;;;;;;;;;;6317589;28;20458;-79
2023/05/03 09:01:47;;;;;;;10.85;5.15;;;;;;;;;;6316548;28;20036;-80
2023/05/03 09:04:47;;;;;;;11.67;5.77;;;;;;;;;;6315800;28;20480;-79
2023/05/03 09:08:03;;;;;;;15.52;6.38;;;;;;;;;;6315949;28;20266;-80
2023/05/03 09:11:04;;;;;;;10.75;7.07;;;;;;;;;;6316082;28;20032;-80
2023/05/03 09:14:14;;;;;;;12.47;6.70;;;;;;;;;;6317884;28;20024;-80
2023/05/03 09:17:20;;;;;;;13.38;6.75;;;;;;;;;;6293491;28;20119;-79
2023/05/03 09:20:32;;;;;;;14.80;7.55;;;;;;;;;;6317594;28;20341;-79
2023/05/03 09:23:32;;;;;;;13.20;6.82;;;;;;;;;;6292037;28;20176;-79
2023/05/03 09:26:33;;;;;;;12.70;6.50;;;;;;;;;;6317687;28;20028;-80
2023/05/03 09:29:35;;;;;;;13.73;7.27;;;;;;;;;;6315527;28;20070;-79
2023/05/03 09:32:46;;;;;;;12.95;7.18;;;;;;;;;;6317042;28;20265;-79
2023/05/03 09:36:12;;;;;;;16.50;6.72;;;;;;;;;;6310451;28;20028;-79
2023/05/03 09:39:16;;;;;;;12.75;7.00;;;;;;;;;;6316293;28;20036;-76
2023/05/03 09:42:16;;;;;;;20.88;7.72;;;;;;;;;;6317226;28;20024;-75
2023/05/03 09:45:22;;;;;;;19.47;8.70;;;;;;;;;;6317197;28;20189;-76
2023/05/03 09:48:24;;;;;;;16.73;7.97;;;;;;;;;;6309580;28;20131;-76
2023/05/03 09:51:26;;;;;;;13.98;6.53;;;;;;;;;;6310705;28;20057;-76
2023/05/03 09:54:27;;;;;;;11.52;6.90;;;;;;;;;;6317246;28;20031;-76
2023/05/03 09:57:28;;;;;;;14.97;7.00;;;;;;;;;;6314006;28;20068;-75
2023/05/03 10:00:29;;;;;;;10.07;5.47;;;;;;;;;;6313862;28;20139;-76
2023/05/03 10:03:35;;;;;;;12.63;6.35;;;;;;;;;;6311703;28;20024;-76
2023/05/03 10:06:43;;;;;;;9.93;5.50;;;;;;;;;;6312513;28;20016;-76
2023/05/03 10:09:44;;;;;;;10.02;5.80;;;;;;;;;;6307092;28;20028;-76
2023/05/03 10:12:45;;;;;;;11.52;7.70;;;;;;;;;;6311811;28;20028;-76
2023/05/03 10:15:47;;;;;;;12.88;7.03;;;;;;;;;;6315333;28;20085;-76
2023/05/03 10:18:52;;;;;;;16.10;6.50;;;;;;;;;;6311677;28;20047;-76
2023/05/03 10:22:02;;;;;;;10.35;7.05;;;;;;;;;;6296397;28;20451;-76
2023/05/03 10:25:03;;;;;;;10.77;6.22;;;;;;;;;;6309830;28;20377;-76
2023/05/03 10:28:05;;;;;;;13.13;6.30;;;;;;;;;;6316804;28;20030;-76
2023/05/03 10:31:25;;;;;;;10.75;5.97;;;;;;;;;;6310391;28;20413;-75
2023/05/03 10:34:31;;;;;;;15.07;8.02;;;;;;;;;;6313223;28;20028;-75
2023/05/03 10:37:31;;;;;;;16.63;8.85;;;;;;;;;;6312873;28;20103;-75
2023/05/03 10:40:50;;;;;;;13.23;6.33;;;;;;;;;;6307290;28;20024;-74
2023/05/03 10:43:51;;;;;;;14.52;8.80;;;;;;;;;;6312888;28;20166;-75
2023/05/03 10:46:52;;;;;;;14.03;7.40;;;;;;;;;;6313415;28;20069;-75
2023/05/03 10:50:12;;;;;;;13.57;6.63;;;;;;;;;;6316856;28;20016;-75
2023/05/03 10:53:32;;;;;;;14.55;7.75;;;;;;;;;;6310306;28;20055;-75
2023/05/03 10:56:32;;;;;;;14.82;8.15;;;;;;;;;;6314289;28;20024;-75
2023/05/03 10:59:45;;;;;;;16.35;7.63;;;;;;;;;;6315589;28;20024;-75
2023/05/03 11:03:05;;;;;;;12.88;7.95;;;;;;;;;;6312684;28;20359;-76
2023/05/03 11:06:05;;;;;;;12.80;7.45;;;;;;;;;;6317524;28;20059;-75
2023/05/03 11:09:07;;;;;;;18.30;8.40;;;;;;;;;;6326452;28;20084;-75
2023/05/03 11:12:07;;;;;;;16.27;8.45;;;;;;;;;;6320881;28;20384;-75
2023/05/03 11:15:07;;;;;;;13.83;7.27;;;;;;;;;;6313405;28;20019;-75
2023/05/03 11:18:12;;;;;;;16.40;8.57;;;;;;;;;;6317442;28;20020;-75
2023/05/03 11:21:13;;;;;;;13.05;7.72;;;;;;;;;;6320276;28;20031;-75
2023/05/03 11:24:14;;;;;;;16.77;7.60;;;;;;;;;;6324185;28;20016;-75
2023/05/03 11:27:22;;;;;;;10.67;6.77;;;;;;;;;;6320115;28;20077;-75
2023/05/03 11:30:22;;;;;;;13.32;6.57;;;;;;;;;;6315934;28;20088;-75
2023/05/03 11:33:22;;;;;;;18.50;11.40;;;;;;;;;;6324013;28;20107;-75
2023/05/03 11:36:23;;;;;;;11.67;7.30;;;;;;;;;;6329522;28;20477;-75
2023/05/03 11:39:23;;;;;;;16.37;8.77;;;;;;;;;;6320436;28;20395;-75
2023/05/03 11:42:24;;;;;;;14.30;7.80;;;;;;;;;;6315118;28;20027;-76
2023/05/03 11:45:28;;;;;;;12.23;8.25;;;;;;;;;;6322965;28;20402;-76
2023/05/03 11:48:31;;;;;;;12.15;8.30;;;;;;;;;;6300484;28;20051;-75
2023/05/03 11:51:32;;;;;;;19.35;9.38;;;;;;;;;;6320667;28;20479;-76
2023/05/03 11:54:32;;;;;;;16.50;9.18;;;;;;;;;;6321545;28;20024;-75
2023/05/03 11:57:32;;;;;;;17.57;8.87;;;;;;;;;;6322689;28;20106;-76
2023/05/03 12:00:33;;;;;;;16.53;8.67;;;;;;;;;;6321566;28;20043;-80
2023/05/03 12:03:34;;;;;;;17.63;7.67;;;;;;;;;;6320147;28;20941;-80
2023/05/03 12:06:34;;;;;;;;;;;;;;;;;;6315579;28;20012;-79
2023/05/03 12:09:35;;;;;;;18.42;7.95;;;;;;;;;;6315301;28;19918;-79
2023/05/03 12:12:37;;;;;;;16.13;8.47;;;;;;;;;;6319896;28;20498;-81
2023/05/03 12:15:37;;;;;;;;;;;;;;;;;;6317170;28;20031;-80
2023/05/03 12:19:01;;;;;;;14.77;8.82;;;;;;;;;;6319994;28;19908;-81
2023/05/03 12:22:01;;;;;;;13.73;8.43;;;;;;;;;;6316057;28;20027;-80
2023/05/03 12:25:02;;;;;;;14.93;8.10;;;;;;;;;;6315035;28;20103;-80
2023/05/03 12:28:03;;;;;;;15.80;8.77;;;;;;;;;;6320009;28;20012;-81
2023/05/03 12:31:04;;;;;;;16.52;8.50;;;;;;;;;;6317419;28;20078;-80
2023/05/03 12:34:06;;;;;;;21.03;10.77;;;;;;;;;;6317992;28;20503;-81
2023/05/03 12:37:06;;;;;;;13.10;8.52;;;;;;;;;;6316017;28;20051;-80
2023/05/03 12:40:07;;;;;;;13.73;8.73;;;;;;;;;;6314115;28;20020;-81
2023/05/03 12:43:07;;;;;;;13.23;7.47;;;;;;;;;;6316401;28;20540;-81
2023/05/03 12:46:10;;;;;;;17.93;6.67;;;;;;;;;;6317759;28;20494;-81
2023/05/03 12:49:12;;;;;;;13.35;7.32;;;;;;;;;;6319546;28;20077;-80
2023/05/03 12:52:12;;;;;;;;;;;;;;;;;;6316036;28;20016;-81
2023/05/03 12:55:13;;;;;;;13.20;7.18;;;;;;;;;;6316415;28;19908;-81
2023/05/03 12:58:13;;;;;;;13.32;8.32;;;;;;;;;;6318306;28;20489;-81
2023/05/03 13:01:13;;;;;;;12.15;8.70;;;;;;;;;;6314463;28;20047;-81
2023/05/03 13:04:13;;;;;;;14.77;9.20;;;;;;;;;;6304356;28;20043;-81
2023/05/03 13:07:15;;;;;;;18.17;10.07;;;;;;;;;;6308703;28;20024;-81
2023/05/03 13:10:17;;;;;;;20.42;13.13;;;;;;;;;;6301062;28;20024;-81
2023/05/03 13:13:17;;;;;;;18.50;11.60;;;;;;;;;;6307888;28;20023;-82
2023/05/03 13:16:18;;;;;;;21.10;12.00;;;;;;;;;;6301654;28;20103;-81
2023/05/03 13:19:18;;;;;;;14.60;9.07;;;;;;;;;;6313670;28;20531;-81
2023/05/03 13:22:19;;;;;;;16.30;9.57;;;;;;;;;;6317578;28;20024;-82
2023/05/03 13:25:19;;;;;;;17.80;9.67;;;;;;;;;;6319156;28;20023;-82
2023/05/03 13:28:23;;;;;;;15.53;8.77;;;;;;;;;;6301307;28;20020;-80
2023/05/03 13:31:25;;;;;;;13.45;8.30;;;;;;;;;;6318410;28;20599;-82
2023/05/03 13:34:25;;;;;;;14.32;9.57;;;;;;;;;;6316636;28;20353;-82
2023/05/03 13:37:26;;;;;;;12.87;7.87;;;;;;;;;;6319157;28;20024;-82
2023/05/03 13:40:26;;;;;;;17.13;7.93;;;;;;;;;;6317715;28;20497;-81
2023/05/03 13:43:26;;;;;;;16.03;8.67;;;;;;;;;;6306199;28;20105;-82
2023/05/03 13:46:26;;;;;;;13.80;8.13;;;;;;;;;;6305487;28;20051;-82
2023/05/03 13:49:26;;;;;;;14.47;8.03;;;;;;;;;;6311750;28;20012;-82
2023/05/03 13:52:27;;;;;;;13.83;8.00;;;;;;;;;;6315774;28;20024;-80
2023/05/03 13:55:27;;;;;;;17.17;7.90;;;;;;;;;;6313331;28;20081;-82
2023/05/03 13:58:27;;;;;;;12.63;6.53;;;;;;;;;;6311430;28;20160;-82
2023/05/03 14:01:27;;;;;;;17.53;6.83;;;;;;;;;;6298345;28;20044;-82
2023/05/03 14:04:30;;;;;;;10.60;6.75;;;;;;;;;;6293186;28;20536;-82
2023/05/03 14:07:31;;;;;;;13.63;6.47;;;;;;;;;;6289741;28;20040;-82
2023/05/03 14:10:51;;;;;;;11.75;6.47;;;;;;;;;;6273317;28;20115;-82
2023/05/03 14:13:52;;;;;;;10.15;5.43;;;;;;;;;;6268649;28;20032;-82
2023/05/03 14:16:52;;;;;;;14.43;7.57;;;;;;;;;;6288977;28;20119;-83
2023/05/03 14:19:53;;;;;;;12.03;5.97;;;;;;;;;;6286719;28;20660;-77
2023/05/03 14:22:53;;;;;;;15.38;6.30;;;;;;;;;;6294743;28;20043;-77
2023/05/03 14:25:53;;;;;;;8.90;4.07;;;;;;;;;;6273549;28;20016;-77
2023/05/03 14:28:53;;;;;;;12.15;5.75;;;;;;;;;;6278034;28;20017;-78
2023/05/03 14:31:55;;;;;;;8.30;4.73;;;;;;;;;;6295625;28;20452;-77
2023/05/03 14:34:55;;;;;;;10.13;5.90;;;;;;;;;;6293227;28;20017;-77
2023/05/03 14:37:56;;;;;;;6.77;4.43;;;;;;;;;;6291921;28;20027;-77
2023/05/03 14:40:56;;;;;;;8.97;5.13;;;;;;;;;;6284079;28;20556;-77
2023/05/03 14:43:56;;;;;;;10.17;4.90;;;;;;;;;;6282924;28;20490;-78
2023/05/03 14:46:57;;;;;;;10.30;5.07;;;;;;;;;;6283558;28;20024;-77
2023/05/03 14:49:58;;;;;;;10.05;5.40;;;;;;;;;;6290160;28;20438;-77
2023/05/03 14:52:59;;;;;;;9.25;5.53;;;;;;;;;;6292628;28;20096;-77
2023/05/03 14:55:59;;;;;;;12.18;5.40;;;;;;;;;;6290370;28;20043;-77
2023/05/03 14:59:00;;;;;;;12.13;6.25;;;;;;;;;;6287492;28;20032;-76
2023/05/03 15:02:01;;;;;;;11.32;5.95;;;;;;;;;;6308936;28;20067;-77
2023/05/03 15:05:03;;;;;;;12.97;6.10;;;;;;;;;;6320924;28;20051;-77
2023/05/03 15:08:04;;;;;;;12.80;5.10;;;;;;;;;;6323310;28;20031;-77
2023/05/03 15:11:06;;;;;;;7.40;4.55;;;;;;;;;;6320581;28;20017;-76
2023/05/03 15:14:08;;;;;;;12.75;6.78;;;;;;;;;;6310811;28;20020;-77
2023/05/03 15:17:09;;;;;;;11.25;5.63;;;;;;;;;;6321150;28;20038;-77
2023/05/03 15:20:12;;;;;;;10.67;5.47;;;;;;;;;;6319329;28;20016;-77
2023/05/03 15:23:12;;;;;;;11.27;5.47;;;;;;;;;;6314815;28;20015;-77
2023/05/03 15:26:14;;;;;;;10.10;5.50;;;;;;;;;;6327276;28;20036;-77
2023/05/03 15:29:14;;;;;;;10.90;5.10;;;;;;;;;;6324712;28;20020;-83
2023/05/03 15:32:15;;;;;;;11.47;5.77;;;;;;;;;;6313735;28;20019;-83
2023/05/03 15:35:15;;;;;;;12.20;4.68;;;;;;;;;;6328228;28;20494;-82
2023/05/03 15:38:16;;;;;;;13.23;5.90;;;;;;;;;;6318327;28;20094;-82
2023/05/03 15:41:16;;;;;;;15.95;6.78;;;;;;;;;;6304023;28;20336;-82
2023/05/03 15:44:17;;;;;;;15.67;6.13;;;;;;;;;;6331763;28;20065;-83
2023/05/03 15:47:17;;;;;;;10.73;7.63;;;;;;;;;;6320671;28;20019;-83
2023/05/03 15:50:17;;;;;;;15.20;6.53;;;;;;;;;;6316241;28;20013;-83
2023/05/03 15:53:17;;;;;;;9.70;4.53;;;;;;;;;;6327076;28;20066;-82
2023/05/03 15:56:19;;;;;;;10.43;3.67;;;;;;;;;;6328362;28;20016;-83
2023/05/03 15:59:19;;;;;;;5.63;3.00;;;;;;;;;;6330453;28;20015;-82
2023/05/03 16:02:20;;;;;;;8.73;3.87;;;;;;;;;;6320862;28;20040;-83
2023/05/03 16:05:22;;;;;;;12.80;6.27;;;;;;;;;;6281076;28;20016;-83
2023/05/03 16:08:22;;;;;;;8.25;4.00;;;;;;;;;;6321822;28;20012;-81
2023/05/03 16:11:22;;;;;;;6.23;2.93;;;;;;;;;;6319890;28;20047;-82
2023/05/03 16:14:23;;;;;;;6.77;2.87;;;;;;;;;;6314010;28;20466;-81
2023/05/03 16:17:24;;;;;;;5.43;2.70;;;;;;;;;;6320337;28;20020;-83
2023/05/03 16:20:24;;;;;;;7.40;3.37;;;;;;;;;;6318004;28;20457;-83
2023/05/03 16:23:24;;;;;;;8.97;3.47;;;;;;;;;;6315453;28;20163;-82
2023/05/03 16:26:25;;;;;;;11.63;5.60;;;;;;;;;;6316817;28;20027;-83
2023/05/03 16:29:25;;;;;;;14.23;7.53;;;;;;;;;;6305544;28;20099;-83
2023/05/03 16:32:26;;;;;;;10.83;6.37;;;;;;;;;;6320663;28;20336;-82
2023/05/03 16:35:26;;;;;;;12.57;6.07;;;;;;;;;;6321461;28;20030;-83
2023/05/03 16:38:29;;;;;;;8.97;4.67;;;;;;;;;;6317290;28;20334;-83
2023/05/03 16:41:29;;;;;;;12.88;5.30;;;;;;;;;;6316863;28;20021;-77
2023/05/03 16:44:30;;;;;;;6.97;3.57;;;;;;;;;;6313394;28;20266;-78
2023/05/03 16:47:33;;;;;;;10.77;5.40;;;;;;;;;;6307002;28;20012;-78
2023/05/03 16:50:34;;;;;;;13.07;5.85;;;;;;;;;;6316491;28;20031;-78
2023/05/03 16:53:35;;;;;;;11.73;5.47;;;;;;;;;;6316464;28;20020;-78
2023/05/03 16:56:36;;;;;;;13.47;6.67;;;;;;;;;;6316593;28;20061;-78
2023/05/03 16:59:37;;;;;;;12.07;6.23;;;;;;;;;;6317588;28;20016;-78
2023/05/03 17:02:38;;;;;;;12.85;6.00;;;;;;;;;;6312949;28;20040;-78
2023/05/03 17:05:38;;;;;;;14.50;6.53;;;;;;;;;;6314805;28;20509;-78
2023/05/03 17:08:38;;;;;;;17.87;8.87;;;;;;;;;;6313507;28;20027;-78
2023/05/03 17:11:39;;;;;;;12.73;6.70;;;;;;;;;;6315918;28;20028;-78
2023/05/03 17:14:39;;;;;;;14.67;6.83;;;;;;;;;;6306585;28;20119;-78
2023/05/03 17:17:41;;;;;;;14.20;6.93;;;;;;;;;;6318989;28;20024;-78
2023/05/03 17:20:41;;;;;;;14.68;6.93;;;;;;;;;;6319071;28;20499;-78
2023/05/03 17:23:42;;;;;;;21.30;7.07;;;;;;;;;;6315002;28;20406;-78
2023/05/03 17:26:43;;;;;;;13.27;6.33;;;;;;;;;;6319233;28;20060;-78
2023/05/03 17:29:44;;;;;;;11.45;5.80;;;;;;;;;;6317374;28;20385;-78
2023/05/03 17:32:45;;;;;;;13.17;7.30;;;;;;;;;;6312852;28;20026;-77
2023/05/03 17:35:45;;;;;;;15.43;7.23;;;;;;;;;;6314370;28;20524;-77
2023/05/03 17:38:45;;;;;;;14.87;7.97;;;;;;;;;;6310215;28;20025;-77
2023/05/03 17:41:45;;;;;;;19.70;12.47;;;;;;;;;;6312456;28;20478;-77
2023/05/03 17:44:46;;;;;;;12.40;7.68;;;;;;;;;;6315425;28;20425;-77
2023/05/03 17:47:46;;;;;;;16.23;9.20;;;;;;;;;;6293296;28;20012;-77
2023/05/03 17:50:55;;;;;;;11.13;6.15;;;;;;;;;;6317014;28;20083;-82